Time;durP1;ratioP1;P1;durP2;ratioP2;P2;SDS_P1;SDS_P2;PMS_P1;PMS_P2;Temp;Humidity;BMP_temperature;BMP_pressure;BME280_temperature;BME280_humidity;BME280_pressure;Samples;Min_cycle;Max_cycle;Signal;HPM_P1;HPM_P2
2024/02/08 00:00:28;;;;;;;0.20;0.20;;;;;;;;;;1031827;28;20554;-77
2024/02/08 00:00:58;;;;;;;0.30;0.30;;;;;;;;;;1032248;28;20462;-77
2024/02/08 00:01:29;;;;;;;0.55;0.55;;;;;;;;;;1037933;23;20030;-76
2024/02/08 00:01:59;;;;;;;2.33;0.85;;;;;;;;;;1032150;23;20066;-76
2024/02/08 00:02:29;;;;;;;0.20;0.20;;;;;;;;;;1046744;23;20767;-76
2024/02/08 00:03:34;;;;;;;0.13;0.13;;;;;;;;;;1034510;23;20534;-76
2024/02/08 00:04:04;;;;;;;0.20;0.20;;;;;;;;;;1119650;23;20041;-77
2024/02/08 00:05:12;;;;;;;0.40;0.40;;;;;;;;;;1034192;23;20153;-77
2024/02/08 00:05:42;;;;;;;0.65;0.65;;;;;;;;;;1040955;23;20034;-78
2024/02/08 00:06:13;;;;;;;0.20;0.20;;;;;;;;;;1032385;28;20068;-77
2024/02/08 00:06:43;;;;;;;0.30;0.30;;;;;;;;;;1030269;28;20050;-79
2024/02/08 00:07:14;;;;;;;0.20;0.20;;;;;;;;;;1030806;28;20604;-77
2024/02/08 00:07:44;;;;;;;0.93;0.88;;;;;;;;;;1029231;28;20029;-77
2024/02/08 00:08:15;;;;;;;0.95;0.95;;;;;;;;;;1030288;28;20058;-77
2024/02/08 00:08:45;;;;;;;0.47;0.47;;;;;;;;;;1030455;28;20061;-77
2024/02/08 00:09:16;;;;;;;0.20;0.20;;;;;;;;;;1026154;28;20019;-77
2024/02/08 00:09:46;;;;;;;0.20;0.20;;;;;;;;;;1026445;28;20030;-78
2024/02/08 00:10:17;;;;;;;7.38;0.95;;;;;;;;;;1026274;28;20081;-77
2024/02/08 00:10:47;;;;;;;0.28;0.28;;;;;;;;;;1025974;28;20450;-79
2024/02/08 00:11:18;;;;;;;5.03;1.85;;;;;;;;;;1026710;28;20045;-77
2024/02/08 00:11:50;;;;;;;0.20;0.20;;;;;;;;;;1032960;23;20038;-77
2024/02/08 00:12:20;;;;;;;0.45;0.45;;;;;;;;;;1031432;28;20121;-76
2024/02/08 00:12:51;;;;;;;1.00;1.00;;;;;;;;;;1030202;28;20026;-77
2024/02/08 00:13:21;;;;;;;0.55;0.55;;;;;;;;;;1030175;28;20109;-77
2024/02/08 00:13:51;;;;;;;30.20;1.48;;;;;;;;;;1029671;28;20551;-78
2024/02/08 00:14:23;;;;;;;0.30;0.30;;;;;;;;;;1029080;28;20054;-78
2024/02/08 00:14:54;;;;;;;1.85;1.75;;;;;;;;;;1030015;28;20029;-77
2024/02/08 00:15:25;;;;;;;0.70;0.65;;;;;;;;;;1029917;28;20029;-77
2024/02/08 00:15:55;;;;;;;0.30;0.30;;;;;;;;;;1029712;28;20023;-77
2024/02/08 00:17:03;;;;;;;0.20;0.20;;;;;;;;;;1066005;23;20049;-77
2024/02/08 00:17:33;;;;;;;3.13;0.73;;;;;;;;;;1011315;23;20058;-77
2024/02/08 00:18:39;;;;;;;0.20;0.20;;;;;;;;;;1039956;23;20062;-77
2024/02/08 00:19:49;;;;;;;0.50;0.50;;;;;;;;;;1082337;23;20018;-77
2024/02/08 00:20:20;;;;;;;0.20;0.20;;;;;;;;;;1040913;23;20103;-76
2024/02/08 00:20:50;;;;;;;2.13;1.55;;;;;;;;;;1034684;28;20093;-77
2024/02/08 00:21:21;;;;;;;1.08;1.00;;;;;;;;;;1034555;28;20077;-77
2024/02/08 00:21:51;;;;;;;1.88;1.77;;;;;;;;;;1033673;28;20499;-77
2024/02/08 00:22:22;;;;;;;0.50;0.50;;;;;;;;;;1032796;28;20117;-76
2024/02/08 00:22:53;;;;;;;0.30;0.30;;;;;;;;;;1030027;28;20113;-77
2024/02/08 00:23:23;;;;;;;0.10;0.10;;;;;;;;;;1030127;28;20586;-77
2024/02/08 00:23:54;;;;;;;0.50;0.50;;;;;;;;;;1030500;28;20055;-77
2024/02/08 00:24:24;;;;;;;1.25;1.25;;;;;;;;;;1030341;28;20022;-77
2024/02/08 00:24:55;;;;;;;0.30;0.30;;;;;;;;;;1034293;28;20019;-77
2024/02/08 00:25:25;;;;;;;1.20;1.20;;;;;;;;;;1033692;28;20026;-77
2024/02/08 00:26:30;;;;;;;0.20;0.20;;;;;;;;;;1036623;23;20054;-77
2024/02/08 00:27:00;;;;;;;0.15;0.15;;;;;;;;;;1039014;23;20030;-77
2024/02/08 00:27:30;;;;;;;1.98;1.42;;;;;;;;;;1038732;23;20118;-76
2024/02/08 00:28:01;;;;;;;0.20;0.20;;;;;;;;;;1032515;28;20033;-77
2024/02/08 00:28:31;;;;;;;0.30;0.30;;;;;;;;;;1032334;28;20035;-77
2024/02/08 00:29:02;;;;;;;0.93;0.90;;;;;;;;;;1031973;28;20117;-77
2024/02/08 00:29:32;;;;;;;0.20;0.20;;;;;;;;;;1029984;28;20022;-77
2024/02/08 00:30:03;;;;;;;2.28;0.85;;;;;;;;;;1030135;28;20489;-77
2024/02/08 00:30:33;;;;;;;0.22;0.22;;;;;;;;;;1030083;28;20028;-77
2024/02/08 00:31:04;;;;;;;1.10;1.10;;;;;;;;;;1029931;28;20468;-77
2024/02/08 00:31:35;;;;;;;0.20;0.20;;;;;;;;;;1029340;28;20185;-77
2024/02/08 00:32:05;;;;;;;0.38;0.38;;;;;;;;;;1028269;28;20027;-77
2024/02/08 00:32:36;;;;;;;0.10;0.10;;;;;;;;;;1027867;28;20037;-77
2024/02/08 00:33:06;;;;;;;0.40;0.40;;;;;;;;;;1028083;28;20104;-77
2024/02/08 00:33:38;;;;;;;0.10;0.10;;;;;;;;;;1023919;29;20023;-77
2024/02/08 00:34:09;;;;;;;0.20;0.20;;;;;;;;;;1024094;29;20045;-77
2024/02/08 00:34:40;;;;;;;0.52;0.50;;;;;;;;;;1023899;29;20499;-77
2024/02/08 00:35:11;;;;;;;0.20;0.20;;;;;;;;;;1024290;28;20131;-77
2024/02/08 00:35:41;;;;;;;0.10;0.10;;;;;;;;;;1028429;28;20553;-77
2024/02/08 00:36:14;;;;;;;0.20;0.20;;;;;;;;;;1032540;28;20026;-77
2024/02/08 00:36:45;;;;;;;0.20;0.20;;;;;;;;;;1030856;28;20025;-77
2024/02/08 00:37:15;;;;;;;0.13;0.13;;;;;;;;;;1027457;28;20422;-77
2024/02/08 00:37:49;;;;;;;1.40;1.20;;;;;;;;;;1028058;28;20031;-77
2024/02/08 00:38:19;;;;;;;0.30;0.30;;;;;;;;;;1026790;28;20033;-77
2024/02/08 00:38:51;;;;;;;1.65;1.45;;;;;;;;;;1028031;28;20050;-77
2024/02/08 00:39:21;;;;;;;0.45;0.32;;;;;;;;;;1023719;29;20038;-77
2024/02/08 00:39:52;;;;;;;0.20;0.20;;;;;;;;;;1025072;28;20022;-77
2024/02/08 00:40:24;;;;;;;0.20;0.20;;;;;;;;;;1026391;28;20034;-77
2024/02/08 00:40:55;;;;;;;0.10;0.10;;;;;;;;;;1026302;28;20151;-77
2024/02/08 00:41:25;;;;;;;0.20;0.20;;;;;;;;;;1025818;28;20159;-77
2024/02/08 00:41:57;;;;;;;0.20;0.20;;;;;;;;;;1024215;29;20534;-77
2024/02/08 00:42:27;;;;;;;0.13;0.13;;;;;;;;;;1022406;29;20031;-77
2024/02/08 00:42:58;;;;;;;0.52;0.52;;;;;;;;;;1022214;29;20023;-78
2024/02/08 00:43:28;;;;;;;0.43;0.43;;;;;;;;;;1026129;28;20031;-77
2024/02/08 00:43:59;;;;;;;0.20;0.20;;;;;;;;;;1026570;28;20023;-77
2024/02/08 00:44:30;;;;;;;1.70;1.38;;;;;;;;;;1027998;28;20086;-77
2024/02/08 00:45:02;;;;;;;0.63;0.63;;;;;;;;;;1032039;28;20428;-77
2024/02/08 00:45:33;;;;;;;1.60;1.50;;;;;;;;;;1033166;28;20026;-78
2024/02/08 00:46:03;;;;;;;0.63;0.63;;;;;;;;;;1034351;28;20026;-77
2024/02/08 00:46:34;;;;;;;0.50;0.50;;;;;;;;;;1030181;28;20014;-77
2024/02/08 00:47:06;;;;;;;6.70;1.45;;;;;;;;;;1029317;28;20093;-77
2024/02/08 00:47:37;;;;;;;0.88;0.88;;;;;;;;;;1027961;28;20026;-77
2024/02/08 00:48:07;;;;;;;2.63;0.95;;;;;;;;;;1025502;28;20150;-77
2024/02/08 00:48:43;;;;;;;1.33;1.27;;;;;;;;;;1025889;28;20537;-77
2024/02/08 00:49:13;;;;;;;0.82;0.82;;;;;;;;;;1023438;29;20034;-77
2024/02/08 00:49:43;;;;;;;2.47;0.98;;;;;;;;;;1024658;28;20391;-77
2024/02/08 00:50:14;;;;;;;1.02;0.93;;;;;;;;;;1023966;29;20027;-77
2024/02/08 00:50:44;;;;;;;1.48;1.15;;;;;;;;;;1022299;29;20019;-77
2024/02/08 00:51:16;;;;;;;0.30;0.30;;;;;;;;;;1025613;28;20023;-77
2024/02/08 00:51:49;;;;;;;0.38;0.38;;;;;;;;;;1025805;28;20434;-77
2024/02/08 00:52:19;;;;;;;0.47;0.47;;;;;;;;;;1021796;29;20055;-77
2024/02/08 00:52:52;;;;;;;2.15;2.00;;;;;;;;;;1024053;29;20020;-77
2024/02/08 00:53:23;;;;;;;0.45;0.45;;;;;;;;;;1024405;28;20565;-77
2024/02/08 00:53:56;;;;;;;0.40;0.40;;;;;;;;;;1026064;28;20027;-77
2024/02/08 00:54:26;;;;;;;0.13;0.13;;;;;;;;;;1023049;29;20582;-77
2024/02/08 00:54:57;;;;;;;0.47;0.47;;;;;;;;;;1023929;29;20023;-77
2024/02/08 00:55:29;;;;;;;0.10;0.10;;;;;;;;;;1024001;28;20034;-77
2024/02/08 00:56:00;;;;;;;0.40;0.40;;;;;;;;;;1026297;28;20047;-77
2024/02/08 00:56:30;;;;;;;0.22;0.22;;;;;;;;;;1027896;28;20410;-77
2024/02/08 00:57:10;;;;;;;3.70;0.63;;;;;;;;;;1027441;28;20027;-77
2024/02/08 00:57:40;;;;;;;0.30;0.30;;;;;;;;;;1027248;28;20027;-77
2024/02/08 00:58:15;;;;;;;2.80;1.55;;;;;;;;;;1029577;23;20141;-77
2024/02/08 00:58:47;;;;;;;0.30;0.30;;;;;;;;;;1023929;28;20031;-77
2024/02/08 00:59:17;;;;;;;0.20;0.20;;;;;;;;;;1024733;28;20027;-77
2024/02/08 00:59:48;;;;;;;0.75;0.43;;;;;;;;;;1024131;29;20137;-77
2024/02/08 01:00:18;;;;;;;0.35;0.35;;;;;;;;;;1024005;29;20027;-77
2024/02/08 01:00:53;;;;;;;0.30;0.30;;;;;;;;;;1024383;29;20027;-77
2024/02/08 01:01:23;;;;;;;0.47;0.47;;;;;;;;;;1020278;29;20031;-77
2024/02/08 01:01:54;;;;;;;0.30;0.30;;;;;;;;;;1022127;29;20532;-77
2024/02/08 01:02:24;;;;;;;0.40;0.40;;;;;;;;;;1022175;29;20034;-77
2024/02/08 01:02:58;;;;;;;0.20;0.20;;;;;;;;;;1020428;29;20019;-77
2024/02/08 01:03:29;;;;;;;0.85;0.68;;;;;;;;;;1024991;28;20027;-77
2024/02/08 01:03:59;;;;;;;1.33;1.33;;;;;;;;;;1025788;28;20050;-77
2024/02/08 01:04:30;;;;;;;0.68;0.68;;;;;;;;;;1025027;28;20058;-77
2024/02/08 01:05:01;;;;;;;0.35;0.35;;;;;;;;;;1021928;29;20019;-77
2024/02/08 01:05:32;;;;;;;3.25;1.55;;;;;;;;;;1021320;29;20031;-77
2024/02/08 01:06:03;;;;;;;1.55;1.45;;;;;;;;;;1021539;29;20051;-77
2024/02/08 01:06:34;;;;;;;0.30;0.30;;;;;;;;;;1022214;28;20074;-77
2024/02/08 01:07:04;;;;;;;1.45;0.40;;;;;;;;;;1024013;28;20026;-76
2024/02/08 01:07:35;;;;;;;0.88;0.28;;;;;;;;;;1025056;28;20166;-76
2024/02/08 01:08:07;;;;;;;0.20;0.20;;;;;;;;;;1022090;28;20353;-77
2024/02/08 01:08:38;;;;;;;3.22;1.60;;;;;;;;;;1022068;28;20035;-77
2024/02/08 01:09:08;;;;;;;1.38;0.93;;;;;;;;;;1021834;29;20023;-76
2024/02/08 01:09:39;;;;;;;2.83;1.23;;;;;;;;;;1022044;29;20031;-76
2024/02/08 01:10:09;;;;;;;0.45;0.45;;;;;;;;;;1020302;29;20443;-77
2024/02/08 01:10:40;;;;;;;0.40;0.40;;;;;;;;;;1021814;28;20026;-76
2024/02/08 01:11:10;;;;;;;4.55;1.38;;;;;;;;;;1021358;29;20020;-77
2024/02/08 01:11:41;;;;;;;5.07;1.25;;;;;;;;;;1022652;29;20069;-77
2024/02/08 01:12:12;;;;;;;0.40;0.40;;;;;;;;;;1022171;29;20511;-77
2024/02/08 01:12:43;;;;;;;1.30;1.20;;;;;;;;;;1022131;29;20550;-77
2024/02/08 01:13:17;;;;;;;0.88;0.88;;;;;;;;;;1022155;29;20065;-77
2024/02/08 01:13:47;;;;;;;0.52;0.52;;;;;;;;;;1021466;29;20020;-77
2024/02/08 01:14:27;;;;;;;1.55;0.93;;;;;;;;;;1021988;29;20369;-77
2024/02/08 01:14:57;;;;;;;1.42;0.75;;;;;;;;;;1021603;29;20550;-77
2024/02/08 01:15:28;;;;;;;3.30;1.15;;;;;;;;;;1020849;29;20027;-76
2024/02/08 01:15:59;;;;;;;0.55;0.50;;;;;;;;;;1022470;29;20122;-77
2024/02/08 01:16:33;;;;;;;0.82;0.82;;;;;;;;;;1021986;29;20074;-77
2024/02/08 01:17:06;;;;;;;0.75;0.75;;;;;;;;;;1021993;29;20045;-77
2024/02/08 01:17:37;;;;;;;0.20;0.20;;;;;;;;;;1022027;29;20027;-77
2024/02/08 01:18:09;;;;;;;0.20;0.20;;;;;;;;;;1021948;29;20126;-77
2024/02/08 01:18:42;;;;;;;0.30;0.30;;;;;;;;;;1022141;29;20033;-77
2024/02/08 01:19:14;;;;;;;0.65;0.65;;;;;;;;;;1020402;29;20030;-77
2024/02/08 01:19:46;;;;;;;0.28;0.28;;;;;;;;;;1022024;29;20038;-77
2024/02/08 01:20:22;;;;;;;2.92;0.98;;;;;;;;;;1021934;29;20427;-77
2024/02/08 01:20:54;;;;;;;0.55;0.55;;;;;;;;;;1022883;28;20065;-76
2024/02/08 01:21:26;;;;;;;0.52;0.52;;;;;;;;;;1026016;28;20027;-76
2024/02/08 01:21:57;;;;;;;0.30;0.30;;;;;;;;;;1029771;23;20113;-77
2024/02/08 01:22:28;;;;;;;0.20;0.20;;;;;;;;;;1021395;29;20093;-77
2024/02/08 01:22:59;;;;;;;0.30;0.30;;;;;;;;;;1017359;29;20032;-77
2024/02/08 01:23:30;;;;;;;1.00;0.75;;;;;;;;;;1020348;29;20035;-77
2024/02/08 01:24:00;;;;;;;1.00;1.00;;;;;;;;;;1020397;29;20476;-77
2024/02/08 01:24:30;;;;;;;0.22;0.22;;;;;;;;;;1021274;29;20127;-77
2024/02/08 01:25:01;;;;;;;0.77;0.77;;;;;;;;;;1021829;29;20063;-77
2024/02/08 01:25:31;;;;;;;0.20;0.20;;;;;;;;;;1020715;29;20031;-77
2024/02/08 01:26:03;;;;;;;0.20;0.20;;;;;;;;;;1016346;29;20028;-77
2024/02/08 01:26:33;;;;;;;1.75;0.80;;;;;;;;;;1014463;29;20036;-77
2024/02/08 01:27:04;;;;;;;1.38;1.27;;;;;;;;;;1014543;29;20020;-77
2024/02/08 01:27:34;;;;;;;1.20;1.17;;;;;;;;;;1013533;29;20036;-77
2024/02/08 01:28:07;;;;;;;0.30;0.30;;;;;;;;;;1013028;29;20505;-77
2024/02/08 01:28:37;;;;;;;1.83;0.95;;;;;;;;;;1013011;29;20548;-77
2024/02/08 01:29:08;;;;;;;0.63;0.63;;;;;;;;;;1013133;29;20029;-77
2024/02/08 01:29:38;;;;;;;2.58;1.65;;;;;;;;;;1016570;29;20140;-77
2024/02/08 01:30:09;;;;;;;3.60;1.33;;;;;;;;;;1018052;29;20163;-77
2024/02/08 01:30:40;;;;;;;5.72;2.08;;;;;;;;;;1012431;29;20036;-77
2024/02/08 01:31:11;;;;;;;1.27;0.68;;;;;;;;;;1016335;29;20019;-77
2024/02/08 01:31:41;;;;;;;2.50;1.33;;;;;;;;;;1017190;29;20063;-78
2024/02/08 01:32:15;;;;;;;0.75;0.75;;;;;;;;;;1017219;29;20496;-77
2024/02/08 01:32:48;;;;;;;2.00;1.23;;;;;;;;;;1021186;29;20074;-78
2024/02/08 01:33:18;;;;;;;0.90;0.90;;;;;;;;;;1017271;29;20031;-78
2024/02/08 01:33:50;;;;;;;1.83;1.67;;;;;;;;;;1015625;29;20072;-77
2024/02/08 01:34:25;;;;;;;2.75;1.92;;;;;;;;;;1015482;29;20040;-77
2024/02/08 01:34:55;;;;;;;1.23;1.13;;;;;;;;;;1008551;29;20025;-78
2024/02/08 01:35:26;;;;;;;0.80;0.77;;;;;;;;;;1011243;29;20838;-78
2024/02/08 01:35:57;;;;;;;0.98;0.90;;;;;;;;;;1013733;29;20024;-78
2024/02/08 01:36:27;;;;;;;1.63;1.52;;;;;;;;;;1012849;29;20036;-77
2024/02/08 01:36:59;;;;;;;1.85;1.33;;;;;;;;;;1013106;29;20531;-78
2024/02/08 01:37:30;;;;;;;4.30;1.08;;;;;;;;;;1013019;29;20044;-77
2024/02/08 01:38:01;;;;;;;1.27;1.17;;;;;;;;;;1016443;29;20051;-78
2024/02/08 01:38:31;;;;;;;3.08;2.83;;;;;;;;;;1015192;29;20071;-78
2024/02/08 01:39:04;;;;;;;1.58;1.48;;;;;;;;;;1012749;29;20024;-78
2024/02/08 01:39:35;;;;;;;2.53;2.35;;;;;;;;;;1011324;29;20033;-78
2024/02/08 01:40:16;;;;;;;2.35;2.10;;;;;;;;;;1006742;29;20028;-78
2024/02/08 01:40:46;;;;;;;1.13;1.00;;;;;;;;;;1007315;29;20090;-78
2024/02/08 01:41:17;;;;;;;10.02;2.85;;;;;;;;;;1010816;29;20032;-78
2024/02/08 01:41:47;;;;;;;2.33;1.60;;;;;;;;;;1015818;29;20044;-77
2024/02/08 01:42:18;;;;;;;4.35;2.72;;;;;;;;;;1017040;29;20041;-77
2024/02/08 01:42:56;;;;;;;9.95;1.73;;;;;;;;;;1017778;29;20024;-77
2024/02/08 01:43:31;;;;;;;1.42;1.13;;;;;;;;;;1013683;29;20591;-77
2024/02/08 01:44:07;;;;;;;6.55;2.47;;;;;;;;;;1012933;29;20099;-78
2024/02/08 01:44:42;;;;;;;0.40;0.40;;;;;;;;;;1013580;29;20035;-79
2024/02/08 01:45:38;;;;;;;2.63;1.58;;;;;;;;;;1046144;23;20031;-78
2024/02/08 01:46:09;;;;;;;3.60;2.75;;;;;;;;;;1026995;28;20148;-78
2024/02/08 01:46:39;;;;;;;5.25;2.90;;;;;;;;;;1023498;29;20031;-78
2024/02/08 01:47:10;;;;;;;2.20;2.03;;;;;;;;;;1013715;29;20032;-78
2024/02/08 01:47:40;;;;;;;0.93;0.93;;;;;;;;;;1045292;23;20043;-77
2024/02/08 01:48:11;;;;;;;5.07;1.63;;;;;;;;;;1060476;23;20158;-77
2024/02/08 01:48:44;;;;;;;4.00;3.65;;;;;;;;;;1035873;23;20057;-77
2024/02/08 01:49:26;;;;;;;2.20;2.08;;;;;;;;;;1026384;28;20445;-78
2024/02/08 01:49:59;;;;;;;3.45;2.03;;;;;;;;;;1027029;28;20023;-78
2024/02/08 01:50:38;;;;;;;3.53;2.55;;;;;;;;;;1027543;28;20098;-78
2024/02/08 01:51:12;;;;;;;2.15;1.77;;;;;;;;;;1091865;23;20405;-78
2024/02/08 01:51:41;;;;;;;1.80;1.63;;;;;;;;;;1083722;23;20050;-77
2024/02/08 01:52:12;;;;;;;6.47;2.28;;;;;;;;;;1037935;23;20046;-77
2024/02/08 01:52:43;;;;;;;3.33;3.08;;;;;;;;;;1032383;28;20064;-78
2024/02/08 01:53:47;;;;;;;5.82;2.60;;;;;;;;;;1047139;23;20062;-78
2024/02/08 01:54:19;;;;;;;3.47;2.75;;;;;;;;;;1033154;28;20033;-77
2024/02/08 01:54:49;;;;;;;14.25;3.05;;;;;;;;;;1030811;28;20022;-78
2024/02/08 01:55:21;;;;;;;1.92;1.83;;;;;;;;;;1033568;28;20477;-77
2024/02/08 01:55:51;;;;;;;14.90;4.57;;;;;;;;;;1033303;28;20030;-77
2024/02/08 01:56:22;;;;;;;5.93;3.80;;;;;;;;;;1030951;28;20064;-77
2024/02/08 01:56:53;;;;;;;4.22;3.88;;;;;;;;;;1031228;28;20116;-77
2024/02/08 01:57:23;;;;;;;6.68;3.80;;;;;;;;;;1027229;28;20482;-78
2024/02/08 01:57:54;;;;;;;6.82;4.32;;;;;;;;;;1027258;28;20071;-78
2024/02/08 01:58:24;;;;;;;5.05;2.97;;;;;;;;;;1028830;28;20068;-78
2024/02/08 01:58:58;;;;;;;4.40;3.30;;;;;;;;;;1030017;28;20027;-78
2024/02/08 02:00:01;;;;;;;6.38;3.58;;;;;;;;;;1024468;28;19925;-78
2024/02/08 02:00:36;;;;;;;3.50;2.08;;;;;;;;;;1039761;23;20039;-78
2024/02/08 02:01:07;;;;;;;3.30;3.08;;;;;;;;;;1066832;23;20035;-79
2024/02/08 02:01:45;;;;;;;1.48;1.45;;;;;;;;;;1062105;23;20031;-78
2024/02/08 02:02:14;;;;;;;9.13;3.38;;;;;;;;;;1150890;23;20462;-78
2024/02/08 02:02:45;;;;;;;1.33;1.23;;;;;;;;;;1035254;23;20046;-78
2024/02/08 02:03:16;;;;;;;3.13;2.53;;;;;;;;;;1037219;23;20109;-78
2024/02/08 02:03:46;;;;;;;2.47;2.25;;;;;;;;;;1040391;23;20095;-77
2024/02/08 02:04:17;;;;;;;1.42;1.35;;;;;;;;;;1040362;23;20084;-78
2024/02/08 02:04:48;;;;;;;8.57;2.35;;;;;;;;;;1033078;28;20025;-77
2024/02/08 02:05:21;;;;;;;6.85;2.67;;;;;;;;;;1033128;28;20132;-78
2024/02/08 02:05:52;;;;;;;10.57;2.42;;;;;;;;;;1033764;28;20111;-77
2024/02/08 02:06:22;;;;;;;8.30;4.50;;;;;;;;;;1032535;28;20448;-78
2024/02/08 02:06:53;;;;;;;6.45;4.30;;;;;;;;;;1032457;28;20033;-78
2024/02/08 02:07:25;;;;;;;1.63;1.52;;;;;;;;;;1032957;28;20038;-79
2024/02/08 02:07:58;;;;;;;12.40;5.93;;;;;;;;;;1031930;28;20112;-77
2024/02/08 02:09:09;;;;;;;;;;;;;;;;;;1230619;23;20178;-81
2024/02/08 02:09:39;;;;;;;2.45;1.10;;;;;;;;;;1031080;23;20274;-81
2024/02/08 02:10:10;;;;;;;2.45;2.25;;;;;;;;;;1050184;23;20035;-81
2024/02/08 02:10:41;;;;;;;10.50;4.72;;;;;;;;;;1056460;23;20038;-81
2024/02/08 02:11:59;;;;;;;2.08;1.52;;;;;;;;;;1063814;23;20061;-78
2024/02/08 02:12:30;;;;;;;1.40;1.30;;;;;;;;;;1042446;23;20470;-78
2024/02/08 02:13:01;;;;;;;4.68;2.65;;;;;;;;;;1029875;28;20088;-79
2024/02/08 02:13:34;;;;;;;3.70;2.33;;;;;;;;;;1031491;28;20603;-79
2024/02/08 02:14:05;;;;;;;2.35;1.85;;;;;;;;;;1036108;23;20030;-80
2024/02/08 02:14:38;;;;;;;2.63;2.05;;;;;;;;;;1033384;23;20010;-78
2024/02/08 02:15:10;;;;;;;3.92;3.15;;;;;;;;;;1024325;28;20027;-79
2024/02/08 02:15:40;;;;;;;4.45;3.50;;;;;;;;;;1024752;28;20072;-79
2024/02/08 02:16:11;;;;;;;6.72;4.00;;;;;;;;;;1030943;23;20174;-79
2024/02/08 02:17:47;;;;;;;7.53;2.50;;;;;;;;;;1094431;23;20051;-79
2024/02/08 02:18:57;;;;;;;;;;;;;;;;;;1111773;23;19932;-80
2024/02/08 02:19:27;;;;;;;2.97;2.65;;;;;;;;;;1139869;23;19917;-79
2024/02/08 02:20:05;;;;;;;13.80;6.10;;;;;;;;;;1091883;23;20078;-77
2024/02/08 02:20:36;;;;;;;2.95;2.75;;;;;;;;;;1103575;23;20061;-78
2024/02/08 02:21:12;;;;;;;3.17;2.95;;;;;;;;;;1072983;23;20028;-79
2024/02/08 02:22:23;;;;;;;;;;;;;;;;;;1206647;23;19921;-78
2024/02/08 02:22:53;;;;;;;0.90;0.90;;;;;;;;;;1045473;23;19930;-79
2024/02/08 02:23:24;;;;;;;13.25;4.30;;;;;;;;;;1039849;23;20058;-78
2024/02/08 02:23:55;;;;;;;2.05;1.88;;;;;;;;;;1072729;23;20033;-78
2024/02/08 02:24:25;;;;;;;10.65;4.15;;;;;;;;;;1146204;23;20028;-78
2024/02/08 02:25:00;;;;;;;2.88;2.22;;;;;;;;;;1100029;23;20010;-78
2024/02/08 02:25:34;;;;;;;3.20;2.90;;;;;;;;;;1104425;23;20044;-78
2024/02/08 02:26:38;;;;;;;8.35;1.60;;;;;;;;;;1094524;23;19930;-79
2024/02/08 02:27:46;;;;;;;2.95;2.35;;;;;;;;;;1140927;23;20051;-79
2024/02/08 02:28:16;;;;;;;2.00;1.90;;;;;;;;;;1030197;23;20165;-78
2024/02/08 02:29:21;;;;;;;6.63;5.53;;;;;;;;;;1105921;23;20567;-78
2024/02/08 02:31:50;;;;;;;4.80;4.40;;;;;;;;;;1193367;23;20500;-79
2024/02/08 02:32:21;;;;;;;6.13;4.55;;;;;;;;;;1100099;23;20035;-78
2024/02/08 02:33:34;;;;;;;13.55;8.63;;;;;;;;;;1193912;23;20060;-79
2024/02/08 02:34:44;;;;;;;3.17;2.92;;;;;;;;;;1034152;23;20047;-78
2024/02/08 02:35:49;;;;;;;42.08;5.78;;;;;;;;;;1054061;23;20451;-78
2024/02/08 02:36:53;;;;;;;9.13;5.90;;;;;;;;;;1109279;23;20189;-79
2024/02/08 02:37:26;;;;;;;8.83;4.00;;;;;;;;;;1068356;23;1427764;-79
2024/02/08 02:38:51;;;;;;;3.15;2.95;;;;;;;;;;1128150;23;20021;-80
2024/02/08 02:39:25;;;;;;;11.07;4.03;;;;;;;;;;1132884;23;20081;-77
2024/02/08 02:39:56;;;;;;;10.63;5.45;;;;;;;;;;1120165;23;20049;-77
2024/02/08 02:40:30;;;;;;;7.47;2.67;;;;;;;;;;1034003;23;20274;-79
2024/02/08 02:41:06;;;;;;;14.88;5.57;;;;;;;;;;1093706;23;20093;-78
2024/02/08 02:41:37;;;;;;;5.30;2.53;;;;;;;;;;998235;23;20026;-78
2024/02/08 02:42:08;;;;;;;4.40;4.07;;;;;;;;;;1026543;23;20034;-78
2024/02/08 02:43:09;;;;;;;14.97;6.27;;;;;;;;;;1026931;23;20056;-78
2024/02/08 02:43:40;;;;;;;5.47;3.88;;;;;;;;;;1033611;23;20532;-78
2024/02/08 02:44:12;;;;;;;10.10;4.55;;;;;;;;;;1032154;28;20524;-79
2024/02/08 02:44:43;;;;;;;4.88;4.38;;;;;;;;;;1087732;23;20453;-78
2024/02/08 02:45:21;;;;;;;4.50;3.25;;;;;;;;;;1048566;23;20051;-82
2024/02/08 02:45:55;;;;;;;11.18;6.45;;;;;;;;;;997356;23;20349;-79
2024/02/08 02:46:27;;;;;;;24.20;9.30;;;;;;;;;;1176962;23;20078;-81
2024/02/08 02:47:13;;;;;;;;;;;;;;;;;;;;;
2024/02/08 02:47:37;;;;;;;4.30;3.25;;;;;;;;;;1061297;23;20377;-79
2024/02/08 02:48:08;;;;;;;11.07;6.78;;;;;;;;;;1051803;23;20043;-79
2024/02/08 02:48:40;;;;;;;22.83;10.00;;;;;;;;;;1041796;23;20019;-78
2024/02/08 02:49:11;;;;;;;16.90;5.68;;;;;;;;;;1046612;23;20419;-77
2024/02/08 02:51:26;;;;;;;19.60;9.85;;;;;;;;;;1055360;23;20030;-80
2024/02/08 02:51:59;;;;;;;9.85;7.75;;;;;;;;;;1085559;23;20393;-81
2024/02/08 02:52:29;;;;;;;5.85;5.32;;;;;;;;;;1036854;23;20054;-77
2024/02/08 02:52:59;;;;;;;14.73;7.53;;;;;;;;;;1031051;28;20073;-78
2024/02/08 02:53:30;;;;;;;26.25;12.68;;;;;;;;;;1032249;28;20410;-79
2024/02/08 02:54:01;;;;;;;9.10;6.43;;;;;;;;;;1073576;23;21311;-78
2024/02/08 02:55:48;;;;;;;;;;;;;;;;;;1111348;23;20597;-78
2024/02/08 02:56:19;;;;;;;4.72;4.32;;;;;;;;;;1125100;23;19925;-77
2024/02/08 02:57:30;;;;;;;7.88;7.10;;;;;;;;;;1012356;23;20021;-78
2024/02/08 02:58:01;;;;;;;6.18;5.57;;;;;;;;;;1029045;28;20774;-77
2024/02/08 02:58:31;;;;;;;15.60;8.25;;;;;;;;;;1095238;23;20038;-77
2024/02/08 02:59:03;;;;;;;14.65;10.27;;;;;;;;;;1035932;23;20118;-81
2024/02/08 02:59:37;;;;;;;12.48;11.13;;;;;;;;;;1058430;23;20042;-81
2024/02/08 03:02:46;;;;;;;14.45;8.93;;;;;;;;;;1077206;23;20860;-78
2024/02/08 03:03:18;;;;;;;21.27;7.00;;;;;;;;;;1104787;23;20019;-77
2024/02/08 03:04:22;;;;;;;14.03;9.93;;;;;;;;;;1041585;23;20520;-80
2024/02/08 03:05:43;;;;;;;5.95;5.53;;;;;;;;;;1127829;23;20018;-79
2024/02/08 03:06:15;;;;;;;7.25;6.28;;;;;;;;;;1019863;28;20075;-78
2024/02/08 03:07:06;;;;;;;12.73;8.80;;;;;;;;;;1024823;23;20795;-82
2024/02/08 03:08:16;;;;;;;17.92;8.82;;;;;;;;;;1022182;28;20066;-84
2024/02/08 03:10:00;;;;;;;16.80;8.60;;;;;;;;;;1081255;23;20046;-80
2024/02/08 03:10:38;;;;;;;3.47;3.17;;;;;;;;;;1084859;23;20011;-80
2024/02/08 03:13:23;;;;;;;5.70;5.32;;;;;;;;;;1092104;23;20062;-79
2024/02/08 03:13:55;;;;;;;12.27;9.50;;;;;;;;;;1026125;28;20134;-81
2024/02/08 03:14:26;;;;;;;7.18;5.00;;;;;;;;;;1036942;23;20077;-78
2024/02/08 03:14:58;;;;;;;5.15;4.25;;;;;;;;;;1025692;28;20122;-79
2024/02/08 03:17:20;;;;;;;5.88;5.00;;;;;;;;;;1023733;28;20054;-84
2024/02/08 03:18:26;;;;;;;2.97;2.38;;;;;;;;;;1049883;23;20063;-78
2024/02/08 03:18:57;;;;;;;7.45;5.22;;;;;;;;;;1141183;23;20013;-79
2024/02/08 03:19:35;;;;;;;6.25;5.75;;;;;;;;;;1112073;23;20034;-78
2024/02/08 03:20:08;;;;;;;5.15;3.70;;;;;;;;;;1041130;23;21831;-80
2024/02/08 03:20:45;;;;;;;18.02;3.85;;;;;;;;;;1108067;23;20013;-82
2024/02/08 03:21:21;;;;;;;3.63;3.35;;;;;;;;;;1062772;23;20425;-82
2024/02/08 03:21:54;;;;;;;8.38;3.40;;;;;;;;;;1046746;23;20045;-82
2024/02/08 03:23:04;;;;;;;6.15;4.07;;;;;;;;;;1014326;29;20163;-83
2024/02/08 03:24:09;;;;;;;5.78;3.10;;;;;;;;;;1018952;28;20059;-82
2024/02/08 03:27:05;;;;;;;6.40;5.85;;;;;;;;;;1061305;23;20264;-82
2024/02/08 03:28:08;;;;;;;5.30;3.65;;;;;;;;;;1037819;23;20798;-82
2024/02/08 03:28:39;;;;;;;3.28;2.17;;;;;;;;;;1222319;23;20052;-76
2024/02/08 03:29:17;;;;;;;3.65;3.35;;;;;;;;;;1024579;28;20443;-79
2024/02/08 03:30:22;;;;;;;3.03;2.80;;;;;;;;;;1228182;23;20054;-80
2024/02/08 03:30:56;;;;;;;19.73;9.05;;;;;;;;;;1019710;28;20428;-77
2024/02/08 03:32:35;;;;;;;4.95;3.33;;;;;;;;;;1095418;23;20041;-81
2024/02/08 03:33:15;;;;;;;4.95;3.80;;;;;;;;;;1044050;23;20125;-79
2024/02/08 03:33:50;;;;;;;3.25;3.05;;;;;;;;;;1032663;23;20104;-82
2024/02/08 03:34:23;;;;;;;5.38;4.28;;;;;;;;;;1028669;28;20038;-83
2024/02/08 03:34:54;;;;;;;2.92;2.78;;;;;;;;;;1127018;23;20018;-79
2024/02/08 03:36:08;;;;;;;4.60;3.88;;;;;;;;;;1091769;23;20067;-82
2024/02/08 03:36:40;;;;;;;2.20;2.00;;;;;;;;;;1067972;23;20629;-81
2024/02/08 03:37:48;;;;;;;1.70;1.60;;;;;;;;;;1028401;28;20065;-82
2024/02/08 03:38:59;;;;;;;6.38;3.63;;;;;;;;;;1063114;23;20050;-79
2024/02/08 03:39:34;;;;;;;13.15;3.72;;;;;;;;;;957757;23;20231;-79
2024/02/08 03:40:08;;;;;;;4.15;1.73;;;;;;;;;;1043623;23;20017;-80
2024/02/08 03:43:33;;;;;;;9.88;4.05;;;;;;;;;;1119526;23;20312;-77
2024/02/08 03:44:04;;;;;;;5.32;2.38;;;;;;;;;;1086883;23;20169;-79
2024/02/08 03:44:35;;;;;;;4.20;3.83;;;;;;;;;;1035492;23;20141;-78
2024/02/08 03:45:06;;;;;;;5.40;4.97;;;;;;;;;;1026246;28;20090;-80
2024/02/08 03:45:40;;;;;;;5.15;4.75;;;;;;;;;;1106862;23;20045;-80
2024/02/08 03:46:11;;;;;;;5.25;4.00;;;;;;;;;;1122028;23;20038;-78
2024/02/08 03:47:13;;;;;;;2.72;2.58;;;;;;;;;;1095456;23;20081;-78
2024/02/08 03:47:47;;;;;;;4.07;2.90;;;;;;;;;;1026657;28;20019;-80
2024/02/08 03:48:20;;;;;;;3.33;3.13;;;;;;;;;;1046178;23;20039;-83
2024/02/08 03:50:05;;;;;;;5.95;4.75;;;;;;;;;;1031595;28;19960;-78
2024/02/08 03:51:23;;;;;;;3.17;2.90;;;;;;;;;;1186633;23;20175;-82
2024/02/08 03:53:17;;;;;;;;;;;;;;;;;;1050917;23;20070;-77
2024/02/08 03:53:48;;;;;;;9.32;5.97;;;;;;;;;;1100243;23;20351;-78
2024/02/08 03:55:37;;;;;;;;;;;;;;;;;;1058923;23;21280;-78
2024/02/08 03:56:08;;;;;;;2.20;1.88;;;;;;;;;;1012802;23;19926;-84
2024/02/08 03:56:38;;;;;;;9.57;4.53;;;;;;;;;;1139551;23;20641;-77